createdAt,value
2019-03-29T00:02:15.373Z,7.93
2019-03-29T00:04:44.023Z,7.53
2019-03-29T00:07:12.572Z,9.27
2019-03-29T00:09:41.237Z,8.10
2019-03-29T00:12:09.793Z,11.90
2019-03-29T00:14:38.385Z,11.07
2019-03-29T00:17:07.083Z,10.47
2019-03-29T00:19:35.667Z,10.70
2019-03-29T00:22:05.047Z,11.50
2019-03-29T00:24:34.123Z,12.80
2019-03-29T00:27:02.685Z,14.90
2019-03-29T00:29:31.344Z,11.33
2019-03-29T00:32:12.318Z,10.83
2019-03-29T00:34:41.300Z,13.30
2019-03-29T00:37:10.708Z,11.27
2019-03-29T00:39:39.365Z,9.63
2019-03-29T00:42:27.326Z,11.17
2019-03-29T00:45:15.321Z,10.20
2019-03-29T00:48:03.319Z,10.23
2019-03-29T00:50:32.936Z,13.17
2019-03-29T00:53:01.638Z,12.57
2019-03-29T00:55:30.327Z,14.37
2019-03-29T00:57:59.088Z,12.40
2019-03-29T01:00:31.176Z,12.63
2019-03-29T01:02:58.084Z,9.87
2019-03-29T01:05:26.645Z,12.63
2019-03-29T01:08:07.209Z,11.33
2019-03-29T01:10:25.584Z,11.67
2019-03-29T01:12:54.212Z,10.03
2019-03-29T01:15:42.211Z,11.17
2019-03-29T01:18:12.400Z,12.90
2019-03-29T01:21:00.364Z,10.50
2019-03-29T01:23:29.020Z,10.10
2019-03-29T01:26:16.987Z,10.33
2019-03-29T01:28:45.708Z,11.40
2019-03-29T01:31:14.489Z,10.97
2019-03-29T01:33:43.769Z,13.53
2019-03-29T01:36:12.497Z,9.67
2019-03-29T01:38:41.075Z,8.60
2019-03-29T01:41:28.977Z,10.23
2019-03-29T01:43:57.623Z,11.13
2019-03-29T01:46:26.181Z,11.77
2019-03-29T01:49:14.294Z,13.97
2019-03-29T01:51:42.903Z,11.90
2019-03-29T01:54:31.032Z,14.13
2019-03-29T01:56:59.692Z,10.47
2019-03-29T01:59:28.286Z,11.90
2019-03-29T02:01:56.838Z,16.80
2019-03-29T02:04:25.424Z,11.90
2019-03-29T02:06:54.116Z,13.40
2019-03-29T02:09:22.782Z,17.47
2019-03-29T02:11:51.373Z,13.90
2019-03-29T02:14:19.960Z,10.97
2019-03-29T02:16:48.585Z,12.60
2019-03-29T02:19:17.239Z,15.53
2019-03-29T02:21:46.021Z,12.87
2019-03-29T02:24:14.681Z,12.77
2019-03-29T02:26:43.244Z,12.20
2019-03-29T02:29:11.831Z,9.40
2019-03-29T02:31:42.268Z,11.53
2019-03-29T02:34:10.765Z,9.93
2019-03-29T02:36:58.666Z,11.27
2019-03-29T02:39:27.394Z,12.90
2019-03-29T02:41:55.981Z,15.07
2019-03-29T02:44:24.650Z,12.53
2019-03-29T02:46:53.869Z,12.00
2019-03-29T02:49:22.869Z,15.70
2019-03-29T02:52:10.833Z,11.13
2019-03-29T02:54:39.496Z,11.50
2019-03-29T02:57:08.193Z,14.77
2019-03-29T02:59:36.857Z,17.50
2019-03-29T03:02:05.500Z,13.90
2019-03-29T03:04:53.494Z,14.17
2019-03-29T03:07:22.057Z,14.40
2019-03-29T03:10:11.509Z,11.63
2019-03-29T03:12:40.206Z,16.63
2019-03-29T03:15:10.341Z,12.73
2019-03-29T03:17:39.189Z,13.03
2019-03-29T03:20:15.547Z,15.73
2019-03-29T03:23:02.801Z,13.60
2019-03-29T03:25:31.365Z,14.93
2019-03-29T03:28:19.369Z,15.37
2019-03-29T03:30:47.941Z,13.87
2019-03-29T03:33:16.595Z,16.53
2019-03-29T03:35:45.222Z,15.13
2019-03-29T03:38:13.895Z,14.90
2019-03-29T03:40:42.517Z,13.60
2019-03-29T03:43:11.122Z,15.43
2019-03-29T03:45:39.747Z,14.50
2019-03-29T03:48:08.337Z,17.47
2019-03-29T03:50:41.697Z,17.17
2019-03-29T03:53:11.540Z,17.53
2019-03-29T03:55:41.945Z,15.63
2019-03-29T03:58:11.983Z,16.90
2019-03-29T04:00:43.678Z,14.57
2019-03-29T04:03:31.721Z,17.97
2019-03-29T04:06:00.402Z,13.70
2019-03-29T04:08:29.078Z,16.87
2019-03-29T04:10:58.168Z,14.90
2019-03-29T04:13:26.913Z,14.43
2019-03-29T04:15:55.750Z,14.60
2019-03-29T04:18:24.488Z,16.10
2019-03-29T04:20:53.187Z,18.50
2019-03-29T04:23:21.855Z,17.10
2019-03-29T04:25:50.484Z,16.10
2019-03-29T04:28:38.490Z,14.70
2019-03-29T04:31:26.463Z,14.87
2019-03-29T04:33:55.056Z,17.87
2019-03-29T04:36:23.766Z,15.23
2019-03-29T04:38:52.353Z,15.10
2019-03-29T04:41:40.353Z,15.87
2019-03-29T04:44:08.961Z,14.57
2019-03-29T04:46:37.549Z,16.93
2019-03-29T04:49:06.285Z,16.27
2019-03-29T04:51:34.844Z,16.57
2019-03-29T04:54:22.784Z,18.50
2019-03-29T04:57:10.784Z,21.77
2019-03-29T04:59:39.349Z,16.93
2019-03-29T05:02:27.355Z,22.73
2019-03-29T05:04:55.915Z,16.60
2019-03-29T05:07:24.580Z,18.33
2019-03-29T05:09:53.136Z,20.30
2019-03-29T05:12:21.736Z,22.20
2019-03-29T05:14:50.364Z,19.70
2019-03-29T05:17:18.924Z,17.00
2019-03-29T05:19:47.525Z,19.27
2019-03-29T05:22:16.089Z,16.33
2019-03-29T05:25:04.585Z,17.90
2019-03-29T05:27:33.252Z,18.67
2019-03-29T05:30:01.812Z,19.10
2019-03-29T05:32:30.474Z,22.47
2019-03-29T05:34:59.095Z,16.20
2019-03-29T05:37:27.760Z,18.30
2019-03-29T05:39:56.463Z,16.57
2019-03-29T05:42:25.021Z,18.67
2019-03-29T05:44:53.622Z,17.17
2019-03-29T05:47:41.601Z,16.77
2019-03-29T05:50:10.402Z,16.30
2019-03-29T05:52:39.000Z,20.77
2019-03-29T05:55:08.002Z,16.53
2019-03-29T05:57:36.671Z,16.90
2019-03-29T06:00:09.724Z,17.33
2019-03-29T06:02:38.336Z,20.17
2019-03-29T06:05:26.289Z,17.70
2019-03-29T06:07:54.887Z,20.83
2019-03-29T06:10:23.517Z,22.93
2019-03-29T06:13:11.524Z,14.83
2019-03-29T06:15:59.488Z,19.17
2019-03-29T06:18:28.091Z,20.37
2019-03-29T06:20:56.655Z,17.43
2019-03-29T06:23:44.593Z,17.27
2019-03-29T06:26:32.571Z,19.10
2019-03-29T06:29:01.172Z,19.50
2019-03-29T06:31:29.872Z,18.77
2019-03-29T06:34:03.939Z,17.57
2019-03-29T06:36:56.351Z,19.00
2019-03-29T06:39:35.454Z,18.87
2019-03-29T06:42:06.401Z,17.93
2019-03-29T06:44:45.384Z,18.20
2019-03-29T06:47:17.816Z,17.37
2019-03-29T06:49:56.474Z,23.77
2019-03-29T06:52:27.779Z,18.83
2019-03-29T06:54:59.303Z,19.37
2019-03-29T06:57:49.813Z,20.33
2019-03-29T07:00:22.622Z,20.03
2019-03-29T07:02:57.558Z,15.97
2019-03-29T07:05:30.244Z,17.20
2019-03-29T07:08:01.854Z,17.40
2019-03-29T07:10:56.012Z,21.87
2019-03-29T07:13:27.699Z,19.83
2019-03-29T07:16:01.065Z,19.00
2019-03-29T07:18:33.119Z,18.73
2019-03-29T07:21:20.403Z,19.03
2019-03-29T07:23:44.375Z,20.43
2019-03-29T07:26:35.868Z,18.63
2019-03-29T07:29:11.276Z,17.00
2019-03-29T07:31:46.458Z,17.17
2019-03-29T07:34:21.589Z,15.53
2019-03-29T07:36:54.360Z,17.30
2019-03-29T07:39:28.598Z,15.07
2019-03-29T07:42:01.380Z,18.17
2019-03-29T07:44:37.827Z,15.83
2019-03-29T07:47:30.529Z,16.80
2019-03-29T07:50:05.046Z,16.10
2019-03-29T07:52:38.773Z,15.73
2019-03-29T07:55:12.586Z,15.60
2019-03-29T07:57:50.144Z,14.77
2019-03-29T08:00:24.982Z,13.43
2019-03-29T08:02:56.449Z,12.50
2019-03-29T08:05:35.228Z,16.90
2019-03-29T08:08:32.202Z,16.07
2019-03-29T08:11:00.681Z,14.03
2019-03-29T08:13:33.006Z,12.93
2019-03-29T08:16:06.775Z,14.80
2019-03-29T08:18:41.556Z,12.10
2019-03-29T08:21:13.263Z,13.70
2019-03-29T08:23:45.135Z,13.73
2019-03-29T08:26:18.575Z,11.50
2019-03-29T08:28:52.319Z,14.07
2019-03-29T08:31:28.311Z,12.63
2019-03-29T08:34:01.146Z,13.07
2019-03-29T08:36:33.177Z,13.57
2019-03-29T08:39:10.156Z,11.20
2019-03-29T08:42:00.933Z,13.33
2019-03-29T08:44:32.275Z,13.93
2019-03-29T08:47:21.482Z,12.37
2019-03-29T08:49:43.082Z,15.97
2019-03-29T08:52:15.026Z,10.70
2019-03-29T08:54:46.263Z,10.83
2019-03-29T08:57:49.827Z,10.37
2019-03-29T09:00:43.902Z,10.87
2019-03-29T09:03:15.494Z,9.90
2019-03-29T09:05:47.412Z,16.53
2019-03-29T09:08:30.936Z,9.30
2019-03-29T09:11:07.319Z,8.53
2019-03-29T09:13:54.549Z,6.00
2019-03-29T09:16:26.604Z,7.73
2019-03-29T09:18:57.983Z,6.33
2019-03-29T09:21:49.606Z,5.40
2019-03-29T09:24:22.662Z,8.97
2019-03-29T09:26:57.239Z,4.33
2019-03-29T09:29:30.894Z,4.67
2019-03-29T09:32:02.368Z,5.07
2019-03-29T09:34:33.362Z,4.80
2019-03-29T09:37:07.554Z,5.30
2019-03-29T09:39:35.812Z,5.10
2019-03-29T09:42:04.732Z,6.53
2019-03-29T09:44:33.297Z,3.97
2019-03-29T09:47:01.884Z,4.33
2019-03-29T09:49:30.493Z,4.53
2019-03-29T09:51:59.043Z,7.90
2019-03-29T09:54:29.132Z,4.60
2019-03-29T09:57:17.070Z,4.37
2019-03-29T09:59:45.665Z,3.83
2019-03-29T10:02:14.384Z,6.17
2019-03-29T10:04:43.008Z,7.33
2019-03-29T10:07:11.607Z,5.83
2019-03-29T10:09:40.172Z,4.67
2019-03-29T10:12:08.897Z,5.60
2019-03-29T10:14:37.486Z,6.03
2019-03-29T10:17:06.072Z,5.47
2019-03-29T10:19:35.127Z,4.57
2019-03-29T10:22:23.066Z,5.60
2019-03-29T10:24:51.678Z,5.27
2019-03-29T10:27:20.263Z,5.37
2019-03-29T10:29:48.808Z,4.77
2019-03-29T10:32:17.466Z,4.83
2019-03-29T10:34:46.018Z,4.97
2019-03-29T10:37:33.987Z,7.03
2019-03-29T10:40:02.885Z,5.13
2019-03-29T10:42:31.944Z,7.13
2019-03-29T10:45:00.547Z,6.40
2019-03-29T10:47:43.339Z,5.40
2019-03-29T10:49:59.296Z,5.80
2019-03-29T10:52:27.882Z,5.57
2019-03-29T10:54:56.888Z,5.03
2019-03-29T10:57:27.177Z,6.53
2019-03-29T10:59:56.712Z,4.37
2019-03-29T11:02:25.318Z,4.70
2019-03-29T11:04:53.880Z,6.13
2019-03-29T11:07:25.012Z,5.37
2019-03-29T11:09:53.581Z,4.83
2019-03-29T11:12:22.233Z,6.83
2019-03-29T11:14:50.886Z,5.80
2019-03-29T11:17:19.483Z,6.20
2019-03-29T11:19:48.032Z,5.93
2019-03-29T11:22:16.686Z,5.43
2019-03-29T11:25:06.055Z,8.03
2019-03-29T11:27:34.704Z,5.07
2019-03-29T11:30:05.154Z,5.07
2019-03-29T11:32:33.810Z,6.80
2019-03-29T11:35:02.447Z,5.43
2019-03-29T11:37:31.024Z,5.50
2019-03-29T11:40:18.983Z,4.83
2019-03-29T11:42:47.573Z,4.40
2019-03-29T11:45:16.367Z,4.30
2019-03-29T11:47:44.952Z,4.63
2019-03-29T11:50:14.010Z,6.17
2019-03-29T11:52:42.656Z,4.53
2019-03-29T11:55:11.225Z,5.20
2019-03-29T11:57:39.881Z,4.47
2019-03-29T12:00:10.380Z,5.30
2019-03-29T12:02:38.963Z,5.40
2019-03-29T12:05:07.771Z,6.50
2019-03-29T12:07:36.585Z,4.63
2019-03-29T12:10:09.092Z,6.90
2019-03-29T12:12:37.670Z,4.60
2019-03-29T12:15:25.707Z,4.57
2019-03-29T12:17:54.297Z,4.80
2019-03-29T12:20:22.925Z,6.33
2019-03-29T12:22:51.585Z,5.17
2019-03-29T12:25:20.140Z,4.20
2019-03-29T12:27:50.399Z,4.03
2019-03-29T12:30:31.438Z,5.37
2019-03-29T12:32:49.632Z,3.83
2019-03-29T12:35:18.196Z,4.37
2019-03-29T12:37:46.801Z,5.60
2019-03-29T12:40:15.596Z,4.30
2019-03-29T12:42:44.181Z,4.70
2019-03-29T12:45:12.909Z,3.57
2019-03-29T12:47:41.530Z,4.00
2019-03-29T12:50:12.505Z,3.50
2019-03-29T12:52:41.280Z,6.77
2019-03-29T12:55:10.164Z,3.93
2019-03-29T12:57:58.135Z,5.17
2019-03-29T13:00:26.794Z,4.10
2019-03-29T13:02:55.417Z,5.00
2019-03-29T13:05:24.075Z,4.70
2019-03-29T13:07:53.253Z,3.23
2019-03-29T13:10:22.200Z,3.53
2019-03-29T13:12:50.853Z,4.50
2019-03-29T13:15:19.518Z,3.17
2019-03-29T13:17:48.104Z,7.47
2019-03-29T13:20:16.804Z,3.20
2019-03-29T13:23:04.807Z,4.13
2019-03-29T13:25:33.500Z,4.83
2019-03-29T13:28:02.084Z,3.70
2019-03-29T13:30:30.800Z,3.30
2019-03-29T13:32:59.463Z,5.13
2019-03-29T13:35:28.012Z,3.27
2019-03-29T13:37:56.602Z,3.57
2019-03-29T13:40:25.228Z,4.50
2019-03-29T13:42:53.839Z,7.37
2019-03-29T13:45:22.454Z,4.20
2019-03-29T13:47:51.141Z,3.33
2019-03-29T13:50:19.772Z,3.93
2019-03-29T13:52:48.362Z,3.20
2019-03-29T13:55:17.056Z,4.43
2019-03-29T13:57:45.713Z,3.57
2019-03-29T14:00:14.442Z,3.60
2019-03-29T14:02:43.092Z,3.10
2019-03-29T14:05:11.888Z,4.77
2019-03-29T14:07:40.558Z,4.43
2019-03-29T14:10:11.143Z,4.23
2019-03-29T14:12:40.204Z,3.47
2019-03-29T14:15:10.277Z,4.20
2019-03-29T14:17:38.980Z,4.57
2019-03-29T14:20:08.518Z,3.50
2019-03-29T14:22:37.168Z,3.47
2019-03-29T14:25:25.067Z,3.47
2019-03-29T14:27:53.653Z,2.90
2019-03-29T14:30:22.273Z,3.97
2019-03-29T14:32:50.864Z,3.13
2019-03-29T14:35:20.960Z,4.83
2019-03-29T14:37:49.620Z,3.77
2019-03-29T14:40:18.248Z,2.93
2019-03-29T14:42:46.901Z,5.87
2019-03-29T14:45:15.699Z,4.80
2019-03-29T14:47:44.456Z,3.57
2019-03-29T14:50:13.354Z,4.17
2019-03-29T14:52:41.941Z,3.40
2019-03-29T14:55:10.640Z,4.70
2019-03-29T14:57:58.629Z,4.37
2019-03-29T15:00:38.910Z,3.70
2019-03-29T15:03:07.564Z,3.80
2019-03-29T15:05:36.288Z,4.03
2019-03-29T15:08:05.708Z,3.97
2019-03-29T15:10:34.408Z,5.13
2019-03-29T15:13:02.994Z,3.50
2019-03-29T15:15:31.683Z,4.20
2019-03-29T15:18:00.267Z,3.73
2019-03-29T15:20:28.965Z,3.43
2019-03-29T15:22:57.630Z,10.00
2019-03-29T15:25:26.180Z,3.77
2019-03-29T15:27:54.821Z,3.67
2019-03-29T15:30:23.447Z,5.53
2019-03-29T15:32:52.032Z,3.40
2019-03-29T15:35:21.045Z,3.37
2019-03-29T15:37:49.680Z,7.03
2019-03-29T15:40:18.304Z,2.97
2019-03-29T15:42:46.961Z,3.67
2019-03-29T15:45:34.924Z,3.77
2019-03-29T15:48:03.601Z,6.37
2019-03-29T15:50:32.172Z,4.53
2019-03-29T15:53:00.749Z,6.47
2019-03-29T15:55:29.309Z,5.03
2019-03-29T15:57:57.985Z,4.53
2019-03-29T16:00:26.605Z,4.07
2019-03-29T16:02:55.195Z,4.13
2019-03-29T16:05:23.824Z,6.43
2019-03-29T16:07:52.476Z,4.03
2019-03-29T16:10:21.100Z,4.10
2019-03-29T16:12:49.705Z,3.73
2019-03-29T16:15:18.316Z,5.67
2019-03-29T16:17:46.912Z,3.80
2019-03-29T16:20:15.457Z,5.03
2019-03-29T16:22:44.040Z,5.03
2019-03-29T16:25:12.823Z,5.20
2019-03-29T16:27:41.481Z,4.23
2019-03-29T16:30:10.765Z,4.10
2019-03-29T16:32:39.353Z,4.33
2019-03-29T16:35:08.344Z,7.13
2019-03-29T16:37:37.073Z,5.10
2019-03-29T16:40:07.376Z,5.70
2019-03-29T16:42:36.302Z,5.83
2019-03-29T16:45:07.560Z,5.40
2019-03-29T16:47:36.212Z,6.23
2019-03-29T16:50:08.678Z,5.37
2019-03-29T16:52:37.261Z,4.97
2019-03-29T16:55:13.583Z,4.67
2019-03-29T16:57:38.013Z,7.97
2019-03-29T17:00:13.029Z,5.93
2019-03-29T17:02:41.858Z,5.43
2019-03-29T17:05:10.879Z,6.03
2019-03-29T17:07:39.685Z,4.00
2019-03-29T17:10:08.906Z,5.37
2019-03-29T17:12:37.539Z,4.90
2019-03-29T17:15:07.367Z,4.20
2019-03-29T17:17:36.192Z,8.53
2019-03-29T17:20:06.954Z,6.10
2019-03-29T17:22:36.718Z,6.73
2019-03-29T17:25:06.856Z,4.63
2019-03-29T17:27:35.405Z,3.53
2019-03-29T17:30:34.115Z,3.10
2019-03-29T17:33:02.684Z,4.63
2019-03-29T17:35:31.274Z,5.43
2019-03-29T17:37:59.822Z,3.37
2019-03-29T17:40:28.412Z,4.27
2019-03-29T17:42:57.002Z,3.60
2019-03-29T17:45:44.994Z,4.10
2019-03-29T17:48:13.564Z,4.67
2019-03-29T17:50:42.228Z,8.70
2019-03-29T17:53:10.792Z,6.67
2019-03-29T17:55:39.453Z,4.77
2019-03-29T17:58:08.182Z,6.23
2019-03-29T18:00:36.906Z,6.03
2019-03-29T18:03:05.469Z,5.47
2019-03-29T18:05:34.116Z,4.40
2019-03-29T18:08:02.822Z,5.37
2019-03-29T18:10:31.544Z,3.33
2019-03-29T18:13:00.173Z,6.40
2019-03-29T18:15:28.824Z,2.90
2019-03-29T18:17:57.385Z,5.10
2019-03-29T18:20:25.965Z,9.00
2019-03-29T18:22:54.595Z,4.73
2019-03-29T18:25:42.595Z,3.90
2019-03-29T18:28:11.219Z,4.77
2019-03-29T18:30:59.221Z,3.53
2019-03-29T18:33:28.507Z,7.67
2019-03-29T18:35:57.165Z,13.47
2019-03-29T18:38:26.268Z,7.03
2019-03-29T18:40:54.853Z,9.67
2019-03-29T18:43:23.476Z,6.40
2019-03-29T18:45:52.153Z,5.97
2019-03-29T18:48:20.777Z,15.23
2019-03-29T18:50:49.368Z,11.47
2019-03-29T18:53:17.926Z,13.50
2019-03-29T18:55:46.516Z,10.33
2019-03-29T18:58:15.072Z,6.20
2019-03-29T19:00:43.655Z,5.57
2019-03-29T19:03:12.373Z,4.60
2019-03-29T19:05:41.158Z,15.47
2019-03-29T19:08:09.772Z,7.77
2019-03-29T19:10:38.523Z,11.03
2019-03-29T19:13:07.265Z,4.73
2019-03-29T19:15:35.998Z,5.37
2019-03-29T19:18:04.612Z,6.67
2019-03-29T19:20:33.268Z,8.10
2019-03-29T19:23:01.894Z,4.90
2019-03-29T19:25:30.552Z,4.20
2019-03-29T19:27:59.112Z,7.77
2019-03-29T19:30:47.061Z,3.23
2019-03-29T19:33:15.692Z,2.60
2019-03-29T19:35:44.336Z,7.60
2019-03-29T19:38:12.970Z,6.67
2019-03-29T19:40:41.629Z,4.80
2019-03-29T19:43:10.242Z,3.73
2019-03-29T19:45:38.898Z,5.80
2019-03-29T19:48:07.593Z,9.80
2019-03-29T19:50:36.180Z,9.13
2019-03-29T19:53:04.812Z,6.97
2019-03-29T19:55:33.497Z,4.47
2019-03-29T19:58:02.209Z,6.20
2019-03-29T20:00:35.914Z,10.07
2019-03-29T20:03:04.628Z,9.27
2019-03-29T20:05:33.218Z,5.43
2019-03-29T20:08:01.844Z,9.20
2019-03-29T20:10:30.439Z,6.83
2019-03-29T20:12:59.438Z,8.40
2019-03-29T20:15:28.127Z,6.73
2019-03-29T20:17:56.764Z,10.10
2019-03-29T20:20:26.591Z,9.30
2019-03-29T20:22:56.994Z,5.07
2019-03-29T20:25:25.847Z,6.23
2019-03-29T20:27:58.097Z,8.13
2019-03-29T20:30:25.618Z,7.23
2019-03-29T20:32:54.249Z,5.57
2019-03-29T20:35:22.900Z,5.07
2019-03-29T20:37:51.590Z,5.57
2019-03-29T20:40:20.285Z,5.60
2019-03-29T20:42:48.947Z,7.23
2019-03-29T20:45:18.045Z,6.63
2019-03-29T20:47:46.758Z,5.23
2019-03-29T20:50:15.556Z,10.63
2019-03-29T20:52:44.213Z,7.57
2019-03-29T20:55:13.005Z,13.03
2019-03-29T20:57:41.728Z,10.57
2019-03-29T21:00:12.536Z,7.33
2019-03-29T21:02:41.263Z,11.90
2019-03-29T21:05:10.057Z,9.03
2019-03-29T21:07:38.712Z,8.80
2019-03-29T21:10:08.011Z,12.83
2019-03-29T21:12:36.617Z,12.07
2019-03-29T21:15:06.512Z,8.47
2019-03-29T21:17:35.368Z,8.63
2019-03-29T21:20:08.125Z,9.17
2019-03-29T21:22:36.993Z,6.30
2019-03-29T21:25:07.285Z,10.60
2019-03-29T21:27:36.213Z,7.80
2019-03-29T21:30:07.514Z,10.10
2019-03-29T21:32:36.102Z,7.63
2019-03-29T21:35:06.493Z,8.93
2019-03-29T21:37:35.553Z,8.63
2019-03-29T21:40:06.343Z,8.93
2019-03-29T21:42:54.273Z,8.47
2019-03-29T21:45:29.072Z,9.13
2019-03-29T21:48:28.096Z,9.60
2019-03-29T21:50:42.673Z,10.20
2019-03-29T21:53:11.256Z,7.50
2019-03-29T21:55:39.817Z,12.07
2019-03-29T21:58:08.404Z,11.50
2019-03-29T22:00:56.302Z,8.50
2019-03-29T22:03:44.232Z,8.27
2019-03-29T22:06:12.929Z,16.57
2019-03-29T22:08:41.583Z,8.83
2019-03-29T22:11:29.505Z,9.13
2019-03-29T22:13:58.065Z,7.40
2019-03-29T22:16:26.635Z,8.33
2019-03-29T22:18:55.292Z,6.37
2019-03-29T22:21:43.296Z,7.03
2019-03-29T22:24:11.850Z,10.67
2019-03-29T22:26:40.576Z,8.27
2019-03-29T22:29:09.133Z,6.00
2019-03-29T22:31:37.761Z,7.07
2019-03-29T22:34:06.340Z,6.23
2019-03-29T22:36:35.032Z,9.03
2019-03-29T22:39:23.042Z,8.27
2019-03-29T22:41:51.669Z,8.47
2019-03-29T22:44:20.380Z,6.17
2019-03-29T22:46:48.941Z,7.77
2019-03-29T22:49:17.530Z,6.17
2019-03-29T22:51:46.091Z,7.37
2019-03-29T22:54:34.082Z,8.57
2019-03-29T22:57:02.673Z,9.70
2019-03-29T22:59:31.234Z,12.07
2019-03-29T23:02:00.009Z,11.20
2019-03-29T23:04:28.597Z,7.03
2019-03-29T23:06:57.220Z,8.63
2019-03-29T23:09:25.892Z,8.10
2019-03-29T23:11:54.441Z,6.23
2019-03-29T23:14:23.033Z,7.40
2019-03-29T23:16:51.581Z,7.63
2019-03-29T23:19:20.162Z,8.10
2019-03-29T23:21:48.792Z,10.33
2019-03-29T23:24:17.382Z,7.37
2019-03-29T23:26:45.981Z,9.30
2019-03-29T23:29:14.636Z,8.00
2019-03-29T23:31:43.193Z,9.50
2019-03-29T23:34:11.848Z,7.80
2019-03-29T23:36:40.469Z,7.27
2019-03-29T23:39:09.058Z,7.77
2019-03-29T23:41:57.016Z,11.60
2019-03-29T23:44:45.012Z,11.70
2019-03-29T23:47:13.645Z,6.53
2019-03-29T23:49:42.229Z,8.23
2019-03-29T23:52:10.784Z,11.33
2019-03-29T23:54:39.375Z,8.80
2019-03-29T23:57:07.997Z,11.27
2019-03-29T23:59:36.652Z,6.67
